createdAt,value
2022-12-03T00:01:39.790Z,99159.94
2022-12-03T00:04:07.962Z,99158.38
2022-12-03T00:06:36.024Z,99156.64
2022-12-03T00:09:04.851Z,99151.99
2022-12-03T00:11:33.140Z,99156.14
2022-12-03T00:14:01.130Z,99155.45
2022-12-03T00:16:29.238Z,99157.33
2022-12-03T00:18:57.339Z,99166.10
2022-12-03T00:21:25.493Z,99163.52
2022-12-03T00:23:53.537Z,99164.72
2022-12-03T00:26:21.662Z,99159.55
2022-12-03T00:28:49.702Z,99155.94
2022-12-03T00:31:18.345Z,99159.05
2022-12-03T00:33:46.424Z,99154.23
2022-12-03T00:36:14.520Z,99149.77
2022-12-03T00:38:42.655Z,99144.08
2022-12-03T00:41:10.630Z,99145.27
2022-12-03T00:43:38.749Z,99144.77
2022-12-03T00:46:06.849Z,99140.29
2022-12-03T00:48:35.030Z,99141.85
2022-12-03T00:51:03.041Z,99140.66
2022-12-03T00:53:31.098Z,99133.95
2022-12-03T00:55:59.265Z,99128.80
2022-12-03T00:58:27.182Z,99136.20
2022-12-03T01:00:55.194Z,99134.14
2022-12-03T01:03:22.939Z,99134.64
2022-12-03T01:05:50.766Z,99135.01
2022-12-03T01:08:18.820Z,99137.25
2022-12-03T01:10:47.043Z,99137.94
2022-12-03T01:13:14.947Z,99138.64
2022-12-03T01:15:43.040Z,99133.64
2022-12-03T01:18:11.007Z,99142.60
2022-12-03T01:20:39.038Z,99140.35
2022-12-03T01:23:06.893Z,99137.73
2022-12-03T01:25:34.967Z,99134.28
2022-12-03T01:28:03.018Z,99126.68
2022-12-03T01:30:50.951Z,99118.23
2022-12-03T01:33:18.901Z,99117.20
2022-12-03T01:35:46.882Z,99108.23
2022-12-03T01:38:14.860Z,99109.79
2022-12-03T01:40:42.845Z,99121.53
2022-12-03T01:43:10.923Z,99121.52
2022-12-03T01:45:38.736Z,99116.88
2022-12-03T01:48:06.961Z,99121.88
2022-12-03T01:50:34.915Z,99129.98
2022-12-03T01:53:03.270Z,99130.52
2022-12-03T01:55:31.460Z,99134.29
2022-12-03T01:58:01.184Z,99133.42
2022-12-03T02:00:30.505Z,99132.73
2022-12-03T02:03:01.746Z,99124.77
2022-12-03T02:05:33.970Z,99116.15
2022-12-03T02:08:02.309Z,99115.46
2022-12-03T02:10:36.258Z,99118.59
2022-12-03T02:13:11.020Z,99121.37
2022-12-03T02:15:40.280Z,99118.27
2022-12-03T02:18:09.488Z,99124.31
2022-12-03T02:20:44.371Z,99130.35
2022-12-03T02:23:26.218Z,99136.36
2022-12-03T02:25:54.237Z,99133.44
2022-12-03T02:28:23.332Z,99132.23
2022-12-03T02:30:51.358Z,99137.75
2022-12-03T02:33:19.597Z,99142.75
2022-12-03T02:35:48.484Z,99139.47
2022-12-03T02:38:20.092Z,99141.55
2022-12-03T02:40:52.516Z,99142.07
2022-12-03T02:43:21.780Z,99134.83
2022-12-03T02:45:53.651Z,99131.39
2022-12-03T02:48:27.543Z,99130.52
2022-12-03T02:51:00.080Z,99130.35
2022-12-03T02:53:32.814Z,99123.29
2022-12-03T02:56:02.758Z,99118.81
2022-12-03T02:58:33.076Z,99124.16
2022-12-03T03:01:04.071Z,99123.30
2022-12-03T03:03:33.284Z,99119.50
2022-12-03T03:06:02.795Z,99113.47
2022-12-03T03:08:31.396Z,99128.66
2022-12-03T03:11:02.145Z,99122.42
2022-12-03T03:13:32.645Z,99119.31
2022-12-03T03:16:03.184Z,99120.17
2022-12-03T03:18:32.237Z,99122.77
2022-12-03T03:21:00.668Z,99121.21
2022-12-03T03:23:28.564Z,99124.34
2022-12-03T03:26:09.889Z,99126.76
2022-12-03T03:28:45.046Z,99128.65
2022-12-03T03:31:16.096Z,99131.06
2022-12-03T03:33:46.683Z,99125.88
2022-12-03T03:36:15.972Z,99109.83
2022-12-03T03:38:44.325Z,99119.15
2022-12-03T03:41:12.937Z,99115.53
2022-12-03T03:43:42.404Z,99115.70
2022-12-03T03:46:12.280Z,99118.11
2022-12-03T03:48:41.650Z,99116.56
2022-12-03T03:51:10.440Z,99116.55
2022-12-03T03:53:48.087Z,99115.88
2022-12-03T03:56:19.254Z,99122.09
2022-12-03T03:58:47.425Z,99119.15
2022-12-03T04:01:17.265Z,99118.80
2022-12-03T04:03:45.345Z,99115.88
2022-12-03T04:06:13.135Z,99113.64
2022-12-03T04:08:41.013Z,99117.27
2022-12-03T04:11:28.297Z,99115.36
2022-12-03T04:13:56.428Z,99113.80
2022-12-03T04:16:24.388Z,99116.91
2022-12-03T04:18:52.450Z,99118.29
2022-12-03T04:21:41.809Z,99117.77
2022-12-03T04:24:11.332Z,99121.73
2022-12-03T04:26:58.059Z,99119.83
2022-12-03T04:29:26.172Z,99119.32
2022-12-03T04:32:13.184Z,99119.48
2022-12-03T04:35:00.925Z,99121.90
2022-12-03T04:37:29.141Z,99122.08
2022-12-03T04:39:57.227Z,99122.08
2022-12-03T04:42:25.262Z,99124.15
2022-12-03T04:44:53.589Z,99120.88
2022-12-03T04:47:22.464Z,99114.15
2022-12-03T04:49:51.395Z,99120.19
2022-12-03T04:52:20.987Z,99120.54
2022-12-03T04:54:50.045Z,99124.85
2022-12-03T04:57:18.292Z,99123.47
2022-12-03T04:59:46.276Z,99113.27
2022-12-03T05:02:14.444Z,99108.45
2022-12-03T05:04:43.593Z,99106.55
2022-12-03T05:07:11.807Z,99108.46
2022-12-03T05:09:40.025Z,99108.12
2022-12-03T05:12:08.066Z,99105.86
2022-12-03T05:14:36.842Z,99105.35
2022-12-03T05:17:04.944Z,99101.38
2022-12-03T05:19:51.972Z,99108.80
2022-12-03T05:22:19.961Z,99105.18
2022-12-03T05:24:48.053Z,99105.19
2022-12-03T05:27:21.730Z,99104.48
2022-12-03T05:29:52.620Z,99101.56
2022-12-03T05:32:22.295Z,99095.86
2022-12-03T05:34:50.728Z,99090.85
2022-12-03T05:37:19.106Z,99097.23
2022-12-03T05:39:47.104Z,99096.55
2022-12-03T05:42:33.714Z,99096.55
2022-12-03T05:45:02.442Z,99098.97
2022-12-03T05:47:30.484Z,99099.30
2022-12-03T05:49:58.384Z,99104.14
2022-12-03T05:52:26.214Z,99108.45
2022-12-03T05:54:55.675Z,99116.39
2022-12-03T05:57:23.811Z,99111.23
2022-12-03T05:59:51.867Z,99106.55
2022-12-03T06:02:21.008Z,99106.55
2022-12-03T06:04:50.635Z,99106.19
2022-12-03T06:07:18.960Z,99104.45
2022-12-03T06:09:46.875Z,99103.42
2022-12-03T06:12:15.896Z,99101.17
2022-12-03T06:14:43.884Z,99107.55
2022-12-03T06:17:11.823Z,99108.94
2022-12-03T06:19:39.773Z,99111.52
2022-12-03T06:22:07.911Z,99102.53
2022-12-03T06:24:35.865Z,99108.90
2022-12-03T06:27:05.517Z,99107.52
2022-12-03T06:29:33.443Z,99115.46
2022-12-03T06:32:01.442Z,99115.66
2022-12-03T06:34:29.458Z,99119.11
2022-12-03T06:36:57.740Z,99124.63
2022-12-03T06:39:25.682Z,99126.17
2022-12-03T06:41:53.552Z,99130.66
2022-12-03T06:44:21.724Z,99135.84
2022-12-03T06:46:49.933Z,99137.90
2022-12-03T06:49:18.017Z,99133.74
2022-12-03T06:51:46.044Z,99136.14
2022-12-03T06:54:13.889Z,99140.44
2022-12-03T06:56:45.076Z,99138.70
2022-12-03T06:59:13.938Z,99145.94
2022-12-03T07:01:42.070Z,99145.27
2022-12-03T07:04:10.134Z,99149.08
2022-12-03T07:06:38.208Z,99148.23
2022-12-03T07:09:06.140Z,99147.38
2022-12-03T07:11:40.412Z,99147.39
2022-12-03T07:14:11.350Z,99141.54
2022-12-03T07:16:40.043Z,99136.86
2022-12-03T07:19:08.123Z,99138.09
2022-12-03T07:21:36.144Z,99141.19
2022-12-03T07:24:06.165Z,99140.48
2022-12-03T07:26:34.239Z,99142.20
2022-12-03T07:29:02.393Z,99145.66
2022-12-03T07:31:30.427Z,99148.41
2022-12-03T07:33:58.556Z,99151.67
2022-12-03T07:36:26.593Z,99149.60
2022-12-03T07:38:54.580Z,99150.46
2022-12-03T07:41:22.593Z,99154.27
2022-12-03T07:43:50.569Z,99154.27
2022-12-03T07:46:18.555Z,99153.41
2022-12-03T07:48:46.564Z,99151.71
2022-12-03T07:51:15.586Z,99146.38
2022-12-03T07:53:43.907Z,99145.01
2022-12-03T07:56:11.962Z,99142.95
2022-12-03T07:58:40.961Z,99142.59
2022-12-03T08:01:10.488Z,99148.11
2022-12-03T08:03:38.781Z,99139.65
2022-12-03T08:06:07.011Z,99141.36
2022-12-03T08:08:35.074Z,99137.90
2022-12-03T08:11:04.478Z,99137.05
2022-12-03T08:13:34.857Z,99137.05
2022-12-03T08:16:16.093Z,99138.06
2022-12-03T08:18:45.518Z,99140.50
2022-12-03T08:21:16.100Z,99138.25
2022-12-03T08:23:44.263Z,99137.71
2022-12-03T08:26:28.211Z,99139.10
2022-12-03T08:28:56.274Z,99138.94
2022-12-03T08:31:32.776Z,99130.84
2022-12-03T08:34:23.724Z,99130.67
2022-12-03T08:37:00.267Z,99133.25
2022-12-03T08:39:40.582Z,99133.77
2022-12-03T08:42:34.378Z,99136.52
2022-12-03T08:45:40.244Z,99140.49
2022-12-03T08:48:14.430Z,99147.90
2022-12-03T08:50:43.675Z,99147.90
2022-12-03T08:53:14.701Z,99142.54
2022-12-03T08:55:53.077Z,99150.47
2022-12-03T08:58:43.125Z,99147.52
2022-12-03T09:01:11.074Z,99147.86
2022-12-03T09:03:50.326Z,99152.36
2022-12-03T09:06:18.738Z,99156.68
2022-12-03T09:08:48.402Z,99161.67
2022-12-03T09:11:16.426Z,99152.20
2022-12-03T09:13:44.429Z,99151.33
2022-12-03T09:16:13.609Z,99159.28
2022-12-03T09:18:41.636Z,99157.90
2022-12-03T09:21:09.711Z,99152.89
2022-12-03T09:23:37.493Z,99152.71
2022-12-03T09:26:05.655Z,99159.77
2022-12-03T09:28:33.599Z,99158.90
2022-12-03T09:31:01.373Z,99160.30
2022-12-03T09:33:31.181Z,99159.45
2022-12-03T09:35:59.535Z,99159.79
2022-12-03T09:38:27.490Z,99158.75
2022-12-03T09:40:55.482Z,99156.85
2022-12-03T09:43:24.607Z,99160.47
2022-12-03T09:45:57.982Z,99161.84
2022-12-03T09:48:26.207Z,99160.80
2022-12-03T09:50:54.420Z,99160.99
2022-12-03T09:53:26.104Z,99158.59
2022-12-03T09:55:54.444Z,99156.53
2022-12-03T09:58:31.849Z,99151.02
2022-12-03T10:01:02.581Z,99145.86
2022-12-03T10:03:32.147Z,99151.38
2022-12-03T10:06:00.149Z,99148.45
2022-12-03T10:08:32.352Z,99147.95
2022-12-03T10:11:00.623Z,99144.84
2022-12-03T10:13:31.538Z,99140.70
2022-12-03T10:16:01.238Z,99138.31
2022-12-03T10:18:38.306Z,99140.90
2022-12-03T10:21:16.877Z,99136.08
2022-12-03T10:23:49.510Z,99127.79
2022-12-03T10:26:37.988Z,99132.96
2022-12-03T10:29:19.851Z,99131.05
2022-12-03T10:32:06.115Z,99130.03
2022-12-03T10:34:39.650Z,99131.58
2022-12-03T10:37:12.622Z,99135.70
2022-12-03T10:40:08.750Z,99132.77
2022-12-03T10:42:41.382Z,99127.77
2022-12-03T10:45:09.267Z,99122.58
2022-12-03T10:47:37.346Z,99122.41
2022-12-03T10:50:18.746Z,99118.80
2022-12-03T10:52:47.276Z,99127.42
2022-12-03T10:55:16.337Z,99125.02
2022-12-03T10:57:46.417Z,99110.88
2022-12-03T11:00:19.021Z,99111.05
2022-12-03T11:02:56.185Z,99108.11
2022-12-03T11:05:28.345Z,99107.77
2022-12-03T11:07:56.913Z,99110.54
2022-12-03T11:10:25.419Z,99112.09
2022-12-03T11:13:31.323Z,99110.87
2022-12-03T11:16:04.374Z,99108.63
2022-12-03T11:18:38.608Z,99113.11
2022-12-03T11:21:06.797Z,99116.73
2022-12-03T11:23:47.140Z,99118.47
2022-12-03T11:26:38.110Z,99115.70
2022-12-03T11:29:14.389Z,99112.77
2022-12-03T11:31:43.543Z,99107.23
2022-12-03T11:34:20.673Z,99102.03
2022-12-03T11:37:10.893Z,99104.45
2022-12-03T11:39:45.230Z,99103.91
2022-12-03T11:42:28.758Z,99100.61
2022-12-03T11:45:05.918Z,99095.57
2022-12-03T11:47:44.835Z,99091.77
2022-12-03T11:50:22.087Z,99093.30
2022-12-03T11:52:55.122Z,99089.85
2022-12-03T11:55:38.531Z,99088.85
2022-12-03T11:58:17.188Z,99086.77
2022-12-03T12:00:54.878Z,99084.19
2022-12-03T12:03:33.870Z,99079.84
2022-12-03T12:06:06.160Z,99074.98
2022-12-03T12:08:36.280Z,99069.42
2022-12-03T12:11:17.198Z,99074.81
2022-12-03T12:13:45.126Z,99071.21
2022-12-03T12:16:13.280Z,99072.98
2022-12-03T12:18:43.942Z,99066.27
2022-12-03T12:21:44.698Z,99066.45
2022-12-03T12:24:32.018Z,99071.80
2022-12-03T12:27:09.093Z,99069.91
2022-12-03T12:29:38.851Z,99068.69
2022-12-03T12:32:10.294Z,99066.11
2022-12-03T12:34:43.985Z,99071.27
2022-12-03T12:37:26.966Z,99066.95
2022-12-03T12:39:57.383Z,99063.70
2022-12-03T12:42:35.083Z,99060.60
2022-12-03T12:45:13.835Z,99056.27
2022-12-03T12:48:09.043Z,99044.72
2022-12-03T12:50:39.103Z,99053.66
2022-12-03T12:53:23.029Z,99054.52
2022-12-03T12:56:00.645Z,99052.63
2022-12-03T12:58:33.249Z,99054.88
2022-12-03T13:01:05.897Z,99051.24
2022-12-03T13:03:36.971Z,99057.96
2022-12-03T13:06:05.480Z,99056.04
2022-12-03T13:08:44.471Z,99057.94
2022-12-03T13:11:24.762Z,99055.52
2022-12-03T13:13:53.071Z,99056.17
2022-12-03T13:16:24.054Z,99061.52
2022-12-03T13:18:58.649Z,99062.91
2022-12-03T13:21:38.506Z,99068.61
2022-12-03T13:24:45.636Z,99066.55
2022-12-03T13:27:17.795Z,99065.88
2022-12-03T13:29:49.450Z,99063.13
2022-12-03T13:32:23.407Z,99063.15
2022-12-03T13:34:51.475Z,99062.46
2022-12-03T13:37:26.682Z,99067.81
2022-12-03T13:39:57.068Z,99062.82
2022-12-03T13:42:46.070Z,99061.63
2022-12-03T13:45:14.064Z,99059.90
2022-12-03T13:47:50.521Z,99061.30
2022-12-03T13:50:38.584Z,99062.67
2022-12-03T13:53:24.257Z,99066.98
2022-12-03T13:55:58.014Z,99069.41
2022-12-03T13:58:25.945Z,99069.24
2022-12-03T14:00:53.861Z,99060.97
2022-12-03T14:03:23.405Z,99060.10
2022-12-03T14:05:51.474Z,99054.06
2022-12-03T14:08:20.586Z,99054.42
2022-12-03T14:10:48.742Z,99053.21
2022-12-03T14:13:16.763Z,99047.86
2022-12-03T14:15:44.676Z,99046.85
2022-12-03T14:18:12.642Z,99043.06
2022-12-03T14:20:44.054Z,99046.52
2022-12-03T14:23:12.086Z,99044.09
2022-12-03T14:25:40.177Z,99052.04
2022-12-03T14:28:08.787Z,99045.99
2022-12-03T14:30:37.314Z,99048.23
2022-12-03T14:33:05.377Z,99054.78
2022-12-03T14:35:33.305Z,99047.19
2022-12-03T14:38:01.148Z,99040.98
2022-12-03T14:40:28.962Z,99058.23
2022-12-03T14:42:56.868Z,99055.13
2022-12-03T14:45:27.709Z,99058.40
2022-12-03T14:47:55.839Z,99056.85
2022-12-03T14:50:23.782Z,99052.87
2022-12-03T14:52:51.814Z,99054.25
2022-12-03T14:55:19.651Z,99060.45
2022-12-03T14:57:47.680Z,99058.37
2022-12-03T15:00:16.125Z,99061.98
2022-12-03T15:02:44.191Z,99056.29
2022-12-03T15:05:12.340Z,99063.71
2022-12-03T15:07:40.370Z,99063.20
2022-12-03T15:10:08.781Z,99059.41
2022-12-03T15:12:36.760Z,99062.52
2022-12-03T15:15:04.982Z,99061.33
2022-12-03T15:17:33.039Z,99060.64
2022-12-03T15:20:01.026Z,99057.19
2022-12-03T15:22:30.008Z,99058.39
2022-12-03T15:24:57.926Z,99057.87
2022-12-03T15:27:26.543Z,99062.19
2022-12-03T15:29:54.715Z,99063.38
2022-12-03T15:32:23.009Z,99066.66
2022-12-03T15:34:51.493Z,99069.60
2022-12-03T15:37:19.582Z,99072.54
2022-12-03T15:39:48.904Z,99066.49
2022-12-03T15:42:16.997Z,99063.22
2022-12-03T15:44:47.086Z,99068.73
2022-12-03T15:47:15.109Z,99067.70
2022-12-03T15:49:43.094Z,99070.13
2022-12-03T15:52:11.092Z,99068.92
2022-12-03T15:54:39.093Z,99067.36
2022-12-03T15:57:07.185Z,99063.75
2022-12-03T15:59:35.215Z,99062.55
2022-12-03T16:02:05.105Z,99061.52
2022-12-03T16:04:36.489Z,99063.23
2022-12-03T16:07:04.589Z,99061.67
2022-12-03T16:09:32.863Z,99066.52
2022-12-03T16:12:00.877Z,99067.39
2022-12-03T16:14:29.170Z,99065.50
2022-12-03T16:16:59.089Z,99066.01
2022-12-03T16:19:27.310Z,99049.79
2022-12-03T16:21:55.329Z,99062.39
2022-12-03T16:24:23.606Z,99063.41
2022-12-03T16:26:52.661Z,99058.08
2022-12-03T16:29:20.779Z,99061.51
2022-12-03T16:31:48.796Z,99060.66
2022-12-03T16:34:17.089Z,99058.23
2022-12-03T16:36:45.960Z,99047.91
2022-12-03T16:39:14.008Z,99057.20
2022-12-03T16:41:42.555Z,99060.83
2022-12-03T16:44:20.331Z,99056.86
2022-12-03T16:46:48.796Z,99056.00
2022-12-03T16:49:16.790Z,99059.79
2022-12-03T16:51:44.835Z,99059.80
2022-12-03T16:54:12.855Z,99054.45
2022-12-03T16:56:40.823Z,99049.96
2022-12-03T16:59:09.033Z,99053.75
2022-12-03T17:01:37.126Z,99052.20
2022-12-03T17:04:05.308Z,99052.21
2022-12-03T17:06:33.464Z,99055.50
2022-12-03T17:09:01.824Z,99052.21
2022-12-03T17:11:29.830Z,99047.73
2022-12-03T17:13:57.906Z,99052.55
2022-12-03T17:16:25.908Z,99051.86
2022-12-03T17:18:54.107Z,99047.89
2022-12-03T17:21:22.285Z,99050.14
2022-12-03T17:23:51.312Z,99051.69
2022-12-03T17:26:20.312Z,99046.50
2022-12-03T17:28:48.392Z,99043.05
2022-12-03T17:31:16.735Z,99036.16
2022-12-03T17:33:44.834Z,99030.64
2022-12-03T17:36:13.850Z,99031.52
2022-12-03T17:38:42.040Z,99027.36
2022-12-03T17:41:10.287Z,99029.78
2022-12-03T17:43:38.345Z,99031.34
2022-12-03T17:46:07.516Z,99027.89
2022-12-03T17:48:35.915Z,99033.75
2022-12-03T17:51:04.245Z,99033.24
2022-12-03T17:53:32.211Z,99034.08
2022-12-03T17:56:00.451Z,99035.47
2022-12-03T17:58:28.864Z,99026.33
2022-12-03T18:01:02.142Z,99027.89
2022-12-03T18:03:31.304Z,99029.43
2022-12-03T18:05:59.597Z,99029.95
2022-12-03T18:08:28.234Z,99029.44
2022-12-03T18:10:56.504Z,99023.05
2022-12-03T18:13:24.634Z,99014.60
2022-12-03T18:15:52.979Z,99014.61
2022-12-03T18:18:21.425Z,99013.55
2022-12-03T18:20:49.797Z,99014.09
2022-12-03T18:23:17.975Z,99013.23
2022-12-03T18:25:45.886Z,99016.32
2022-12-03T18:28:13.976Z,99014.59
2022-12-03T18:30:43.332Z,99014.42
2022-12-03T18:33:15.704Z,99009.77
2022-12-03T18:35:44.496Z,99009.05
2022-12-03T18:38:16.507Z,99005.29
2022-12-03T18:40:46.443Z,99010.10
2022-12-03T18:43:17.129Z,99012.33
2022-12-03T18:45:45.281Z,99011.46
2022-12-03T18:48:18.869Z,99004.58
2022-12-03T18:50:48.554Z,99010.95
2022-12-03T18:53:19.120Z,99006.98
2022-12-03T18:55:47.780Z,99008.86
2022-12-03T18:58:19.559Z,99006.96
2022-12-03T19:00:47.906Z,98997.30
2022-12-03T19:03:16.544Z,99003.33
2022-12-03T19:05:44.764Z,99004.19
2022-12-03T19:08:15.249Z,98999.18
2022-12-03T19:10:45.223Z,99004.72
2022-12-03T19:13:13.412Z,98993.16
2022-12-03T19:15:41.570Z,99006.95
2022-12-03T19:18:09.716Z,99008.31
2022-12-03T19:20:41.072Z,99007.44
2022-12-03T19:23:10.457Z,99009.50
2022-12-03T19:25:38.555Z,99013.13
2022-12-03T19:28:07.267Z,99009.67
2022-12-03T19:30:35.533Z,99008.11
2022-12-03T19:33:03.749Z,99009.34
2022-12-03T19:35:32.854Z,99008.83
2022-12-03T19:38:01.047Z,99014.17
2022-12-03T19:40:29.198Z,99012.11
2022-12-03T19:42:57.343Z,99011.23
2022-12-03T19:45:25.563Z,99010.04
2022-12-03T19:47:53.787Z,99011.24
2022-12-03T19:50:23.457Z,98992.12
2022-12-03T19:52:51.975Z,99012.29
2022-12-03T19:55:21.091Z,99013.14
2022-12-03T19:57:49.324Z,99010.54
2022-12-03T20:00:17.978Z,99015.73
2022-12-03T20:02:49.040Z,99012.77
2022-12-03T20:05:17.180Z,99011.92
2022-12-03T20:07:45.424Z,99015.38
2022-12-03T20:10:13.689Z,99015.38
2022-12-03T20:12:41.795Z,99007.78
2022-12-03T20:15:10.487Z,99010.89
2022-12-03T20:17:38.553Z,99011.39
2022-12-03T20:20:07.508Z,99017.43
2022-12-03T20:22:35.921Z,99006.71
2022-12-03T20:25:04.316Z,99003.27
2022-12-03T20:27:32.954Z,99006.02
2022-12-03T20:30:01.227Z,99002.20
2022-12-03T20:32:29.243Z,99002.89
2022-12-03T20:34:57.413Z,99006.69
2022-12-03T20:37:25.506Z,99003.23
2022-12-03T20:39:54.327Z,99000.80
2022-12-03T20:42:23.744Z,98990.45
2022-12-03T20:44:55.116Z,98995.26
2022-12-03T20:47:23.357Z,98996.13
2022-12-03T20:49:51.580Z,98999.07
2022-12-03T20:52:19.760Z,98991.14
2022-12-03T20:54:47.977Z,98994.58
2022-12-03T20:57:16.109Z,98997.34
2022-12-03T20:59:44.312Z,98997.17
2022-12-03T21:02:12.564Z,99003.04
2022-12-03T21:04:41.018Z,98995.63
2022-12-03T21:07:09.062Z,99006.30
2022-12-03T21:09:37.375Z,99002.47
2022-12-03T21:12:05.751Z,99003.51
2022-12-03T21:14:33.863Z,99006.27
2022-12-03T21:17:09.693Z,98999.91
2022-12-03T21:19:40.561Z,99009.04
2022-12-03T21:22:08.782Z,98996.79
2022-12-03T21:24:36.974Z,98999.71
2022-12-03T21:27:05.199Z,99011.79
2022-12-03T21:29:33.356Z,99006.94
2022-12-03T21:32:02.075Z,99009.52
2022-12-03T21:34:35.849Z,99005.20
2022-12-03T21:37:04.815Z,99011.75
2022-12-03T21:39:32.936Z,99005.02
2022-12-03T21:42:34.687Z,99001.38
2022-12-03T21:44:48.980Z,99005.19
2022-12-03T21:47:17.277Z,99002.61
2022-12-03T21:49:45.511Z,99005.38
2022-12-03T21:52:13.544Z,99004.17
2022-12-03T21:54:41.603Z,99002.09
2022-12-03T21:57:09.734Z,99000.73
2022-12-03T21:59:37.853Z,98998.84
2022-12-03T22:02:06.230Z,98998.69
2022-12-03T22:04:34.644Z,98995.23
2022-12-03T22:07:03.271Z,98997.64
2022-12-03T22:09:33.104Z,98991.92
2022-12-03T22:12:01.388Z,98993.29
2022-12-03T22:14:30.334Z,98993.98
2022-12-03T22:16:58.520Z,98993.95
2022-12-03T22:19:27.293Z,98995.48
2022-12-03T22:21:56.436Z,98992.71
2022-12-03T22:24:24.416Z,98994.44
2022-12-03T22:26:54.878Z,98989.41
2022-12-03T22:29:23.108Z,98987.02
2022-12-03T22:31:51.757Z,98984.08
2022-12-03T22:34:19.885Z,98992.02
2022-12-03T22:36:48.208Z,98979.05
2022-12-03T22:39:16.467Z,98978.01
2022-12-03T22:41:44.951Z,98974.91
2022-12-03T22:44:13.160Z,98975.45
2022-12-03T22:46:41.421Z,98973.04
2022-12-03T22:49:11.765Z,98972.68
2022-12-03T22:51:40.278Z,98980.82
2022-12-03T22:54:08.338Z,98972.51
2022-12-03T22:56:37.452Z,98973.19
2022-12-03T22:59:05.744Z,98964.89
2022-12-03T23:01:36.116Z,98965.56
2022-12-03T23:04:05.701Z,98966.41
2022-12-03T23:06:36.360Z,98960.55
2022-12-03T23:09:06.927Z,98967.39
2022-12-03T23:11:35.284Z,98963.73
2022-12-03T23:14:03.615Z,98964.41
2022-12-03T23:16:33.785Z,98961.14
2022-12-03T23:19:02.795Z,98962.16
2022-12-03T23:21:33.409Z,98956.29
2022-12-03T23:24:03.752Z,98957.14
2022-12-03T23:26:35.854Z,98962.50
2022-12-03T23:29:05.914Z,98958.68
2022-12-03T23:31:34.926Z,98961.11
2022-12-03T23:34:04.121Z,98951.59
2022-12-03T23:36:33.639Z,98943.68
2022-12-03T23:39:02.104Z,98945.42
2022-12-03T23:41:30.157Z,98943.21
2022-12-03T23:43:58.224Z,98944.42
2022-12-03T23:46:27.410Z,98946.67
2022-12-03T23:48:58.608Z,98941.86
2022-12-03T23:51:27.542Z,98939.83
2022-12-03T23:53:56.578Z,98939.15
2022-12-03T23:56:29.338Z,98941.23
2022-12-03T23:58:58.117Z,98942.60
